Time;durP1;ratioP1;P1;durP2;ratioP2;P2;SDS_P1;SDS_P2;PMS_P1;PMS_P2;Temp;Humidity;BMP_temperature;BMP_pressure;BME280_temperature;BME280_humidity;BME280_pressure;Samples;Min_cycle;Max_cycle;Signal;HPM_P1;HPM_P2
2022/02/23 00:01:15;;;;;;;15.02;4.55;;;;;;;15.89;38.20;101756.69;4935665;29;20060;-74
2022/02/23 00:03:41;;;;;;;21.33;5.13;;;;;;;15.80;37.92;101759.44;4935361;29;20063;-74
2022/02/23 00:06:07;;;;;;;18.95;4.93;;;;;;;15.65;38.15;101764.63;4935454;29;20074;-74
2022/02/23 00:08:33;;;;;;;13.02;3.78;;;;;;;15.67;38.05;101754.09;4935532;29;20533;-75
2022/02/23 00:10:59;;;;;;;19.05;6.43;;;;;;;15.74;37.72;101744.22;4935590;29;20051;-73
2022/02/23 00:13:26;;;;;;;14.48;3.95;;;;;;;15.69;37.83;101740.78;4918429;29;20058;-75
2022/02/23 00:15:54;;;;;;;15.20;5.78;;;;;;;15.49;37.74;101737.53;4935103;29;20024;-80
2022/02/23 00:18:21;;;;;;;22.10;5.15;;;;;;;15.64;37.32;101733.50;4935401;29;20027;-75
2022/02/23 00:20:47;;;;;;;15.00;3.30;;;;;;;15.67;37.30;101732.03;4935337;29;20034;-74
2022/02/23 00:23:12;;;;;;;22.88;6.18;;;;;;;15.80;36.93;101729.13;4935403;29;20074;-74
2022/02/23 00:25:38;;;;;;;15.45;4.57;;;;;;;15.66;37.13;101730.44;4935246;29;20526;-81
2022/02/23 00:28:04;;;;;;;18.55;4.20;;;;;;;15.82;36.85;101732.38;4935254;29;20402;-74
2022/02/23 00:30:30;;;;;;;13.20;3.42;;;;;;;15.81;36.63;101738.22;4935335;29;20031;-81
2022/02/23 00:32:56;;;;;;;21.45;4.93;;;;;;;15.81;36.36;101725.25;4935198;29;20031;-74
2022/02/23 00:35:22;;;;;;;21.45;4.63;;;;;;;15.61;36.73;101716.78;4935274;29;20602;-74
2022/02/23 00:37:48;;;;;;;20.10;4.80;;;;;;;15.80;36.51;101717.31;4935177;29;20118;-74
2022/02/23 00:40:13;;;;;;;20.13;4.28;;;;;;;15.64;36.47;101694.94;4935291;29;20069;-74
2022/02/23 00:42:39;;;;;;;17.48;4.80;;;;;;;15.73;36.60;101698.50;4935275;29;20035;-75
2022/02/23 00:45:05;;;;;;;18.13;4.72;;;;;;;15.72;36.67;101685.06;4935192;29;20445;-81
2022/02/23 00:47:31;;;;;;;20.17;5.05;;;;;;;15.61;36.90;101691.97;4935141;29;20027;-74
2022/02/23 00:49:57;;;;;;;17.38;5.78;;;;;;;15.65;37.00;101687.50;4935120;29;20063;-75
2022/02/23 00:52:23;;;;;;;20.73;4.45;;;;;;;15.68;36.87;101673.84;4935237;29;20127;-74
2022/02/23 00:54:48;;;;;;;25.13;5.40;;;;;;;15.65;37.17;101659.94;4918059;29;20128;-74
2022/02/23 00:57:15;;;;;;;25.10;4.53;;;;;;;15.61;37.22;101667.19;4935090;29;20043;-79
2022/02/23 00:59:42;;;;;;;28.90;5.55;;;;;;;15.66;37.23;101667.88;4934976;29;20083;-74
2022/02/23 01:02:07;;;;;;;16.33;5.25;;;;;;;15.62;37.33;101674.34;4935049;29;20020;-74
2022/02/23 01:04:33;;;;;;;20.80;5.45;;;;;;;15.65;37.48;101662.69;4934732;29;20054;-73
2022/02/23 01:06:59;;;;;;;12.18;3.72;;;;;;;15.56;37.60;101659.88;4934910;29;20031;-74
2022/02/23 01:09:24;;;;;;;18.08;4.10;;;;;;;15.66;37.65;101661.56;4934961;29;20039;-74
2022/02/23 01:11:50;;;;;;;24.83;6.65;;;;;;;15.53;38.08;101657.78;4934907;29;20023;-74
2022/02/23 01:14:16;;;;;;;24.70;4.90;;;;;;;15.65;37.90;101654.44;4934903;29;20095;-73
2022/02/23 01:16:42;;;;;;;19.38;4.72;;;;;;;15.73;37.80;101645.34;4934980;29;20111;-74
2022/02/23 01:19:08;;;;;;;21.13;5.15;;;;;;;15.62;38.08;101639.34;4934851;29;20533;-74
2022/02/23 01:21:34;;;;;;;23.15;4.90;;;;;;;15.67;38.01;101632.88;4934906;29;20031;-75
2022/02/23 01:23:59;;;;;;;31.40;5.60;;;;;;;15.76;38.08;101626.19;4934835;29;20386;-73
2022/02/23 01:26:25;;;;;;;23.63;6.38;;;;;;;15.69;38.12;101617.63;4934695;29;20509;-74
2022/02/23 01:28:51;;;;;;;21.75;4.57;;;;;;;15.74;37.79;101613.91;4938284;29;20024;-82
2022/02/23 01:31:16;;;;;;;13.27;4.15;;;;;;;15.66;37.73;101609.22;4938383;29;20482;-74
2022/02/23 01:33:42;;;;;;;17.13;4.38;;;;;;;15.64;37.77;101611.47;4938367;29;20046;-74
2022/02/23 01:36:08;;;;;;;20.42;4.88;;;;;;;15.64;37.74;101615.06;4938313;29;20417;-74
2022/02/23 01:38:33;;;;;;;16.35;4.53;;;;;;;15.63;37.54;101607.09;4938257;29;20032;-74
2022/02/23 01:41:01;;;;;;;25.98;6.07;;;;;;;15.55;37.91;101597.66;4938335;29;20028;-74
2022/02/23 01:43:28;;;;;;;14.38;4.25;;;;;;;15.49;38.00;101604.47;4921039;29;20082;-74
2022/02/23 01:45:53;;;;;;;19.42;3.88;;;;;;;15.61;37.80;101601.06;4938055;29;20035;-81
2022/02/23 01:48:19;;;;;;;23.60;6.07;;;;;;;15.57;37.78;101602.84;4938053;29;20059;-74
2022/02/23 01:50:45;;;;;;;16.30;4.78;;;;;;;15.64;37.53;101594.94;4938007;29;20030;-74
2022/02/23 01:53:11;;;;;;;18.23;3.83;;;;;;;15.58;37.69;101604.50;4937983;29;20103;-75
2022/02/23 01:55:36;;;;;;;21.88;4.43;;;;;;;15.50;37.99;101598.66;4937924;29;20028;-74
2022/02/23 01:58:04;;;;;;;16.65;4.22;;;;;;;15.71;37.23;101603.50;4937907;29;20028;-74
2022/02/23 02:00:30;;;;;;;16.63;5.15;;;;;;;15.61;37.48;101595.56;4937883;29;20031;-74
2022/02/23 02:02:56;;;;;;;17.30;3.88;;;;;;;15.60;37.47;101588.44;4937852;29;20063;-81
2022/02/23 02:05:21;;;;;;;12.07;4.30;;;;;;;15.70;37.19;101591.69;4937641;29;20518;-75
2022/02/23 02:07:47;;;;;;;16.00;4.78;;;;;;;15.73;36.90;101593.00;4937663;29;20035;-76
2022/02/23 02:10:13;;;;;;;16.80;3.70;;;;;;;15.77;37.02;101580.16;4937612;29;20032;-74
2022/02/23 02:12:39;;;;;;;21.83;5.65;;;;;;;15.68;37.12;101579.38;4937691;29;20034;-74
2022/02/23 02:15:06;;;;;;;19.55;4.65;;;;;;;15.64;36.88;101582.00;4937531;29;20391;-74
2022/02/23 02:17:32;;;;;;;17.80;4.57;;;;;;;15.79;36.68;101588.91;4937549;29;20020;-82
2022/02/23 02:19:58;;;;;;;13.65;3.42;;;;;;;15.84;36.84;101577.72;4937464;29;20027;-82
2022/02/23 02:22:28;;;;;;;12.00;4.18;;;;;;;15.87;36.85;101582.59;4937452;29;20383;-74
2022/02/23 02:24:53;;;;;;;;;;;;;;;15.85;36.74;101573.81;4938132;29;20103;-75
2022/02/23 02:27:19;;;;;;;16.08;3.50;;;;;;;16.04;36.56;101570.69;4937372;29;20353;-74
2022/02/23 02:29:44;;;;;;;17.27;3.33;;;;;;;16.09;36.57;101576.00;4937321;29;20028;-74
2022/02/23 02:32:11;;;;;;;14.93;3.80;;;;;;;16.06;36.33;101571.97;4920165;29;20031;-74
2022/02/23 02:34:37;;;;;;;15.02;4.22;;;;;;;15.95;36.64;101570.72;4937302;29;20024;-74
2022/02/23 02:37:03;;;;;;;11.57;3.20;;;;;;;15.97;36.55;101559.38;4937208;29;20034;-74
2022/02/23 02:39:29;;;;;;;17.42;3.65;;;;;;;16.06;36.30;101551.88;4936815;29;20028;-74
2022/02/23 02:41:56;;;;;;;11.75;3.35;;;;;;;16.02;36.21;101560.00;4937205;29;20083;-75
2022/02/23 02:44:23;;;;;;;13.88;4.40;;;;;;;15.76;36.52;101538.03;4937094;29;20034;-75
2022/02/23 02:46:49;;;;;;;12.88;3.58;;;;;;;15.87;36.12;101549.53;4936982;29;20083;-76
2022/02/23 02:49:14;;;;;;;18.38;3.70;;;;;;;15.83;36.22;101537.53;4936922;29;20032;-74
2022/02/23 02:51:40;;;;;;;17.42;3.90;;;;;;;15.77;36.35;101534.13;4936917;29;20055;-74
2022/02/23 02:54:07;;;;;;;12.75;3.95;;;;;;;15.75;36.28;101525.41;4936894;29;20028;-82
2022/02/23 02:56:33;;;;;;;14.60;3.17;;;;;;;15.77;36.34;101544.34;4936835;29;20031;-74
2022/02/23 02:58:59;;;;;;;15.00;3.83;;;;;;;15.87;36.08;101544.00;4936834;29;20060;-76
2022/02/23 03:01:26;;;;;;;12.82;3.42;;;;;;;15.80;35.95;101539.00;4936731;29;20031;-76
2022/02/23 03:03:53;;;;;;;16.55;3.17;;;;;;;15.74;36.28;101536.75;4936460;29;20052;-74
2022/02/23 03:06:19;;;;;;;12.80;3.80;;;;;;;15.74;36.28;101529.28;4936594;29;20099;-76
2022/02/23 03:08:47;;;;;;;10.52;2.75;;;;;;;15.76;36.25;101526.19;4936612;29;20103;-74
2022/02/23 03:11:12;;;;;;;16.33;2.63;;;;;;;15.81;36.11;101524.09;4936504;29;20059;-74
2022/02/23 03:13:39;;;;;;;13.98;3.40;;;;;;;15.73;36.39;101524.91;4936535;29;20510;-74
2022/02/23 03:16:06;;;;;;;14.60;4.45;;;;;;;15.80;35.98;101529.94;4936483;29;20036;-73
2022/02/23 03:18:32;;;;;;;13.32;3.22;;;;;;;15.69;36.31;101514.88;4936422;29;20035;-73
2022/02/23 03:20:58;;;;;;;9.15;2.78;;;;;;;15.81;36.14;101491.00;4936398;29;20031;-78
2022/02/23 03:23:25;;;;;;;15.45;3.20;;;;;;;15.85;36.29;101493.09;4936293;29;20509;-74
2022/02/23 03:25:51;;;;;;;7.10;2.78;;;;;;;15.94;35.98;101494.66;4936198;29;20038;-74
2022/02/23 03:28:16;;;;;;;9.77;2.45;;;;;;;15.93;36.33;101487.53;4936228;29;20027;-78
2022/02/23 03:30:42;;;;;;;12.68;3.33;;;;;;;15.98;36.03;101478.28;4936205;29;20062;-74
2022/02/23 03:33:11;;;;;;;13.57;3.92;;;;;;;15.99;36.00;101485.41;4936128;29;20028;-75
2022/02/23 03:35:39;;;;;;;15.03;2.83;;;;;;;15.96;35.99;101481.41;4936127;29;20028;-73
2022/02/23 03:38:05;;;;;;;17.40;3.95;;;;;;;15.81;36.18;101468.16;4936085;29;20054;-73
2022/02/23 03:40:31;;;;;;;12.52;3.75;;;;;;;15.89;36.05;101474.78;4936051;29;20087;-74
2022/02/23 03:42:57;;;;;;;13.98;3.88;;;;;;;15.89;35.82;101467.31;4935962;29;20027;-75
2022/02/23 03:45:23;;;;;;;14.68;2.97;;;;;;;15.90;35.80;101466.19;4936015;29;20035;-74
2022/02/23 03:47:49;;;;;;;14.05;3.67;;;;;;;15.84;36.03;101447.41;4935960;29;20486;-74
2022/02/23 03:50:15;;;;;;;9.25;2.88;;;;;;;15.68;36.24;101436.94;4936013;29;20110;-74
2022/02/23 03:52:41;;;;;;;13.18;3.22;;;;;;;15.76;36.13;101452.63;4935774;29;20032;-74
2022/02/23 03:55:08;;;;;;;11.55;3.60;;;;;;;15.78;36.04;101441.25;4935759;29;20028;-74
2022/02/23 03:57:34;;;;;;;12.57;2.67;;;;;;;15.88;35.84;101440.91;4935729;29;20063;-75
2022/02/23 04:00:00;;;;;;;27.95;4.47;;;;;;;15.82;35.89;101428.44;4935706;29;20111;-74
2022/02/23 04:02:25;;;;;;;7.40;2.97;;;;;;;15.77;36.11;101434.13;4935631;29;20123;-74
2022/02/23 04:04:52;;;;;;;14.00;3.80;;;;;;;15.71;36.23;101435.44;4935455;29;20059;-74
2022/02/23 04:07:17;;;;;;;14.25;3.35;;;;;;;15.74;36.26;101441.13;4935491;29;20478;-75
2022/02/23 04:09:43;;;;;;;14.38;3.65;;;;;;;15.90;36.27;101430.34;4935560;29;20046;-76
2022/02/23 04:12:09;;;;;;;11.80;3.67;;;;;;;16.03;35.99;101436.78;4918500;29;20019;-75
2022/02/23 04:14:36;;;;;;;12.38;2.92;;;;;;;16.09;35.93;101436.22;4935167;29;20060;-74
2022/02/23 04:17:02;;;;;;;13.50;3.38;;;;;;;16.08;36.23;101412.56;4935419;29;20023;-74
2022/02/23 04:19:28;;;;;;;6.95;2.08;;;;;;;16.19;35.98;101401.16;4935394;29;20027;-81
2022/02/23 04:21:53;;;;;;;9.60;2.85;;;;;;;16.11;36.21;101411.09;4935337;29;20115;-74
2022/02/23 04:24:19;;;;;;;14.20;2.97;;;;;;;16.14;36.21;101407.66;4918281;29;20032;-74
2022/02/23 04:26:45;;;;;;;11.75;3.78;;;;;;;16.29;36.01;101396.03;4935303;29;20122;-74
2022/02/23 04:29:10;;;;;;;9.57;2.60;;;;;;;16.23;36.35;101385.53;4935335;29;20501;-74
2022/02/23 04:31:36;;;;;;;7.43;3.35;;;;;;;16.23;36.08;101389.09;4935345;29;20106;-77
2022/02/23 04:34:02;;;;;;;12.98;3.10;;;;;;;16.11;36.28;101383.53;4935307;29;20031;-74
2022/02/23 04:36:28;;;;;;;10.45;2.13;;;;;;;16.15;36.30;101376.19;4918215;29;20032;-75
2022/02/23 04:38:54;;;;;;;15.05;3.75;;;;;;;16.13;36.13;101380.44;4918175;29;20422;-74
2022/02/23 04:41:19;;;;;;;12.82;2.20;;;;;;;16.17;36.01;101384.97;4935152;29;20038;-75
2022/02/23 04:43:45;;;;;;;9.15;2.40;;;;;;;16.20;36.10;101389.78;4935181;29;20060;-74
2022/02/23 04:46:11;;;;;;;13.77;2.50;;;;;;;16.12;36.13;101381.59;4935160;29;20038;-74
2022/02/23 04:48:39;;;;;;;10.48;3.33;;;;;;;15.97;36.35;101380.22;4935113;29;20054;-75
2022/02/23 04:51:05;;;;;;;9.23;2.47;;;;;;;16.01;36.37;101367.38;4935152;29;20040;-74
2022/02/23 04:53:31;;;;;;;14.88;2.95;;;;;;;15.91;36.44;101374.09;4935107;29;20028;-74
2022/02/23 04:55:57;;;;;;;13.20;3.03;;;;;;;15.90;36.47;101374.44;4935025;29;20036;-74
2022/02/23 04:58:22;;;;;;;10.63;2.10;;;;;;;15.86;36.95;101366.00;4935059;29;20382;-79
2022/02/23 05:00:48;;;;;;;12.20;2.33;;;;;;;15.99;36.71;101380.69;4935474;29;20087;-74
2022/02/23 05:03:15;;;;;;;12.23;2.55;;;;;;;15.94;36.73;101367.91;4921836;29;20024;-74
2022/02/23 05:05:42;;;;;;;10.55;2.75;;;;;;;15.92;37.02;101383.97;4921674;29;20052;-73
2022/02/23 05:08:09;;;;;;;11.93;2.17;;;;;;;15.96;37.16;101381.38;4938770;29;20090;-74
2022/02/23 05:10:34;;;;;;;10.07;2.97;;;;;;;16.12;36.79;101367.81;4938757;29;20056;-75
2022/02/23 05:13:00;;;;;;;9.75;3.00;;;;;;;16.15;36.79;101362.41;4938666;29;20028;-75
2022/02/23 05:15:26;;;;;;;13.43;3.10;;;;;;;16.08;36.82;101351.91;4938646;29;20042;-74
2022/02/23 05:17:52;;;;;;;8.50;3.17;;;;;;;16.11;36.78;101347.69;4938699;29;20087;-82
2022/02/23 05:20:17;;;;;;;9.77;2.83;;;;;;;15.86;37.12;101343.16;4938460;29;20432;-74
2022/02/23 05:22:46;;;;;;;16.65;4.35;;;;;;;15.79;37.50;101325.22;4938414;29;20114;-80
2022/02/23 05:25:12;;;;;;;8.50;2.35;;;;;;;15.75;37.47;101334.47;4938482;29;20034;-74
2022/02/23 05:27:39;;;;;;;10.27;2.58;;;;;;;15.93;37.28;101327.69;4938349;29;20110;-74
2022/02/23 05:30:06;;;;;;;10.13;2.10;;;;;;;16.06;37.01;101318.38;4938407;29;20028;-74
2022/02/23 05:32:31;;;;;;;14.40;3.08;;;;;;;16.03;36.89;101318.25;4938385;29;20467;-74
2022/02/23 05:34:57;;;;;;;13.15;2.42;;;;;;;15.88;37.26;101311.38;4938367;29;20028;-74
2022/02/23 05:37:22;;;;;;;11.00;2.55;;;;;;;15.98;37.22;101315.69;4938293;29;20027;-74
2022/02/23 05:39:48;;;;;;;15.13;3.53;;;;;;;15.82;37.68;101307.19;4938177;29;20118;-74
2022/02/23 05:42:14;;;;;;;7.00;2.88;;;;;;;15.92;37.49;101314.25;4938240;29;20027;-74
2022/02/23 05:44:39;;;;;;;11.93;2.55;;;;;;;15.81;38.14;101308.34;4938094;29;20031;-74
2022/02/23 05:47:05;;;;;;;18.88;3.30;;;;;;;15.94;37.92;101310.00;4938033;29;20040;-74
2022/02/23 05:49:30;;;;;;;6.50;2.30;;;;;;;15.98;37.81;101312.94;4938071;29;20043;-74
2022/02/23 05:51:56;;;;;;;7.00;2.10;;;;;;;16.09;37.97;101303.09;4938031;29;20482;-82
2022/02/23 05:54:22;;;;;;;5.07;2.10;;;;;;;15.95;38.37;101297.88;4937956;29;20426;-73
2022/02/23 05:56:47;;;;;;;12.38;3.28;;;;;;;16.12;38.26;101285.09;4937995;29;20043;-74
2022/02/23 05:59:13;;;;;;;13.68;3.05;;;;;;;16.11;38.10;101305.53;4920750;29;20047;-74
2022/02/23 06:01:39;;;;;;;12.00;2.95;;;;;;;16.01;38.36;101296.50;4937830;29;20038;-73
2022/02/23 06:04:05;;;;;;;16.52;3.78;;;;;;;16.05;38.53;101280.94;4937558;29;20063;-75
2022/02/23 06:06:31;;;;;;;7.03;1.92;;;;;;;16.02;38.55;101298.16;4937735;29;20031;-81
2022/02/23 06:08:57;;;;;;;15.93;4.28;;;;;;;16.04;38.57;101279.31;4937698;29;20028;-74
2022/02/23 06:11:24;;;;;;;13.93;3.20;;;;;;;15.98;39.21;101291.69;4937721;29;20031;-73
2022/02/23 06:13:53;;;;;;;18.15;3.35;;;;;;;15.96;38.67;101293.97;4936919;29;20028;-74
2022/02/23 06:16:22;;;;;;;10.02;4.35;;;;;;;15.79;39.50;101297.66;4920570;29;20036;-73
2022/02/23 06:18:48;;;;;;;12.65;2.70;;;;;;;15.95;39.36;101283.28;4937552;29;20672;-73
2022/02/23 06:21:14;;;;;;;12.98;3.78;;;;;;;15.90;39.48;101281.53;4937545;29;20482;-75
2022/02/23 06:23:39;;;;;;;11.55;2.72;;;;;;;15.94;39.53;101273.38;4937512;29;20054;-74
2022/02/23 06:26:06;;;;;;;17.00;2.65;;;;;;;15.89;39.84;101282.69;4937411;29;20026;-74
2022/02/23 06:28:32;;;;;;;9.70;2.65;;;;;;;15.91;39.59;101269.34;4937518;29;20023;-74
2022/02/23 06:30:58;;;;;;;10.20;3.25;;;;;;;16.03;39.47;101274.16;4937340;29;20050;-73
2022/02/23 06:33:25;;;;;;;8.25;2.55;;;;;;;15.82;40.13;101255.66;4937267;29;20094;-74
2022/02/23 06:35:52;;;;;;;13.77;3.13;;;;;;;16.00;39.84;101250.00;4937288;29;20027;-73
2022/02/23 06:38:19;;;;;;;6.75;2.42;;;;;;;15.97;39.76;101254.25;4937115;29;20027;-73
2022/02/23 06:40:46;;;;;;;8.25;2.47;;;;;;;16.21;39.30;101244.47;4937111;29;20079;-74
2022/02/23 06:43:15;;;;;;;7.43;2.42;;;;;;;16.08;39.83;101240.84;4920076;29;20456;-81
2022/02/23 06:45:43;;;;;;;11.45;3.05;;;;;;;16.19;39.58;101235.75;4937080;29;20062;-73
2022/02/23 06:48:08;;;;;;;12.38;2.58;;;;;;;15.99;39.92;101227.13;4937051;29;20032;-74
2022/02/23 06:50:34;;;;;;;12.15;3.47;;;;;;;16.01;40.08;101229.56;4936997;29;20031;-73
2022/02/23 06:53:00;;;;;;;8.07;2.67;;;;;;;16.07;39.93;101222.69;4919747;29;20130;-73
2022/02/23 06:55:25;;;;;;;14.88;2.17;;;;;;;16.09;39.92;101215.69;4936879;29;20027;-73
2022/02/23 06:57:51;;;;;;;12.52;2.92;;;;;;;15.87;40.29;101191.28;4936829;29;20035;-74
2022/02/23 07:00:17;;;;;;;8.52;2.42;;;;;;;16.04;40.11;101206.84;4936810;29;20395;-74
2022/02/23 07:02:42;;;;;;;15.82;3.55;;;;;;;15.87;40.59;101182.19;4936729;29;20031;-74
2022/02/23 07:05:09;;;;;;;11.93;3.25;;;;;;;15.94;40.51;101188.75;4936260;29;20043;-74
2022/02/23 07:07:35;;;;;;;9.05;1.98;;;;;;;16.12;40.40;101194.13;4936623;29;20038;-73
2022/02/23 07:10:00;;;;;;;11.40;2.92;;;;;;;15.90;40.68;101185.06;4936871;29;20027;-74
2022/02/23 07:12:26;;;;;;;11.10;2.30;;;;;;;15.97;40.64;101182.59;4936608;29;20131;-81
2022/02/23 07:14:52;;;;;;;11.82;2.17;;;;;;;15.98;40.88;101172.38;4936527;29;20028;-74
2022/02/23 07:17:17;;;;;;;6.32;2.03;;;;;;;15.95;40.90;101165.59;4936662;29;20035;-74
2022/02/23 07:19:43;;;;;;;11.45;2.65;;;;;;;15.82;41.30;101173.00;4935360;29;20087;-74
2022/02/23 07:22:08;;;;;;;14.60;2.42;;;;;;;16.10;40.87;101161.38;4936443;29;20027;-76
2022/02/23 07:24:35;;;;;;;8.75;2.47;;;;;;;15.96;41.08;101158.94;4935413;29;20474;-73
2022/02/23 07:27:01;;;;;;;10.20;3.13;;;;;;;15.88;41.32;101146.03;4936224;29;20031;-74
2022/02/23 07:29:27;;;;;;;9.25;2.40;;;;;;;15.92;41.44;101138.69;4936158;29;20034;-75
2022/02/23 07:31:52;;;;;;;10.30;2.83;;;;;;;15.83;41.47;101118.69;4936311;29;20390;-74
2022/02/23 07:34:18;;;;;;;7.75;2.03;;;;;;;16.01;41.35;101135.84;4936148;29;20020;-74
2022/02/23 07:36:44;;;;;;;9.90;2.53;;;;;;;16.06;41.22;101122.66;4936080;29;20091;-74
2022/02/23 07:39:10;;;;;;;10.73;1.67;;;;;;;16.00;41.24;101118.50;4936115;29;20455;-80
2022/02/23 07:41:36;;;;;;;6.70;2.03;;;;;;;15.87;41.83;101124.31;4935984;29;20031;-74
2022/02/23 07:44:02;;;;;;;7.55;2.05;;;;;;;16.07;41.52;101126.22;4935962;29;20036;-73
2022/02/23 07:46:28;;;;;;;9.07;2.97;;;;;;;16.11;41.22;101120.84;4935965;29;20028;-74
2022/02/23 07:49:01;;;;;;;7.00;1.92;;;;;;;15.95;41.68;101117.94;4935837;29;20134;-74
2022/02/23 07:51:27;;;;;;;6.57;1.77;;;;;;;16.08;41.58;101122.31;4935825;29;20555;-74
2022/02/23 07:53:55;;;;;;;9.20;2.92;;;;;;;16.13;41.38;101121.31;4918783;29;20464;-74
2022/02/23 07:56:22;;;;;;;15.68;4.10;;;;;;;16.04;41.48;101124.97;4935805;29;20526;-73
2022/02/23 07:58:51;;;;;;;8.35;2.60;;;;;;;16.26;41.48;101122.94;4935909;29;20083;-81
2022/02/23 08:01:34;;;;;;;7.35;1.70;;;;;;;16.15;41.80;101107.97;4932601;29;20023;-74
2022/02/23 08:04:01;;;;;;;10.68;2.33;;;;;;;16.24;41.42;101106.72;4917444;29;20148;-81
2022/02/23 08:06:27;;;;;;;7.53;1.98;;;;;;;16.09;42.06;101096.34;4935499;29;20024;-73
2022/02/23 08:08:55;;;;;;;9.95;2.15;;;;;;;16.31;41.71;101095.13;4935566;29;20098;-74
2022/02/23 08:11:21;;;;;;;10.75;3.03;;;;;;;16.09;42.41;101077.84;4935562;29;20027;-74
2022/02/23 08:13:48;;;;;;;13.77;2.63;;;;;;;16.50;41.31;101080.78;4935560;29;20106;-74
2022/02/23 08:21:42;;;;;;;8.88;2.15;;;;;;;16.42;41.99;101063.22;4919726;29;20033;-78
2022/02/23 08:24:07;;;;;;;3.97;1.77;;;;;;;16.62;41.50;101051.25;4919214;29;20031;-75
2022/02/23 08:26:33;;;;;;;7.68;2.00;;;;;;;16.68;41.48;101067.56;4919402;29;20056;-75
2022/02/23 08:28:59;;;;;;;10.73;2.92;;;;;;;16.75;41.31;101063.09;4920032;29;20089;-75
2022/02/23 08:31:25;;;;;;;14.95;2.50;;;;;;;16.77;41.57;101046.19;4919508;29;20079;-75
2022/02/23 08:33:50;;;;;;;8.18;2.08;;;;;;;16.64;41.90;101048.16;4920681;29;20019;-76
2022/02/23 08:36:16;;;;;;;11.27;3.45;;;;;;;16.87;41.30;101043.78;4931821;29;20066;-76
2022/02/23 08:38:42;;;;;;;6.88;2.33;;;;;;;16.88;41.29;101037.09;4935310;29;20024;-79
2022/02/23 08:41:08;;;;;;;10.88;2.65;;;;;;;16.71;41.95;101031.03;4935357;29;20034;-79
2022/02/23 08:43:34;;;;;;;11.77;2.50;;;;;;;16.99;41.44;101022.81;4934847;29;20087;-74
2022/02/23 08:46:00;;;;;;;12.15;3.03;;;;;;;16.88;41.75;101025.25;4933628;29;20031;-82
2022/02/23 08:48:27;;;;;;;8.90;2.65;;;;;;;17.00;41.45;101027.97;4933390;29;20031;-83
2022/02/23 08:50:53;;;;;;;8.27;1.92;;;;;;;17.01;41.23;101015.78;4934923;29;20024;-76
2022/02/23 08:53:18;;;;;;;11.07;2.00;;;;;;;17.09;41.47;101019.56;4934421;29;20497;-82
2022/02/23 08:55:44;;;;;;;15.00;3.20;;;;;;;17.10;41.42;101010.94;4934109;29;20038;-74
2022/02/23 08:58:13;;;;;;;10.43;2.05;;;;;;;17.21;41.23;101019.50;4934226;29;20024;-75
2022/02/23 09:00:40;;;;;;;11.52;1.95;;;;;;;17.42;40.78;101016.56;4933794;29;20024;-83
2022/02/23 09:03:05;;;;;;;9.70;2.80;;;;;;;17.29;41.34;101015.78;4934724;29;20482;-75
2022/02/23 09:05:31;;;;;;;8.90;1.88;;;;;;;17.47;40.91;100997.78;4933246;29;20052;-75
2022/02/23 09:07:57;;;;;;;13.73;3.53;;;;;;;17.60;40.61;101005.97;4933863;29;20035;-77
2022/02/23 09:10:23;;;;;;;16.00;2.47;;;;;;;17.60;40.62;101004.00;4933862;29;20028;-75
2022/02/23 09:12:49;;;;;;;9.77;3.08;;;;;;;17.62;40.68;100987.09;4934943;29;20402;-75
2022/02/23 09:15:15;;;;;;;8.95;2.00;;;;;;;17.73;40.44;100982.69;4934153;29;20032;-76
2022/02/23 09:17:42;;;;;;;18.08;4.00;;;;;;;17.75;40.53;100992.22;4934638;29;20385;-75
2022/02/23 09:20:08;;;;;;;4.35;1.30;;;;;;;17.76;40.80;100976.44;4934906;29;20055;-75
2022/02/23 09:22:34;;;;;;;8.30;1.75;;;;;;;18.03;40.03;100988.56;4934728;29;20141;-74
2022/02/23 09:25:00;;;;;;;3.58;1.58;;;;;;;17.87;40.34;100976.72;4934871;29;20465;-75
2022/02/23 09:27:25;;;;;;;11.57;2.47;;;;;;;18.17;39.97;100979.81;4934666;29;20487;-80
2022/02/23 09:29:51;;;;;;;5.93;1.38;;;;;;;18.44;39.33;100980.84;4931534;29;20032;-78
2022/02/23 09:32:16;;;;;;;8.32;2.10;;;;;;;18.34;39.82;100981.41;4922575;29;20103;-79
2022/02/23 09:34:43;;;;;;;13.10;2.90;;;;;;;18.50;39.26;100979.41;4934884;29;20032;-80
2022/02/23 09:37:08;;;;;;;5.53;2.15;;;;;;;18.70;39.18;100970.00;4933125;29;20057;-78
2022/02/23 09:39:34;;;;;;;6.05;1.83;;;;;;;18.76;39.09;100976.88;4933711;29;20042;-82
2022/02/23 09:42:00;;;;;;;7.10;2.22;;;;;;;18.77;39.06;100959.09;4933895;29;20062;-81
2022/02/23 09:44:30;;;;;;;10.07;2.70;;;;;;;18.81;39.12;100948.88;4933369;29;20040;-74
2022/02/23 09:46:56;;;;;;;7.95;2.33;;;;;;;18.72;39.07;100951.06;4933610;29;20028;-75
2022/02/23 09:49:21;;;;;;;8.20;1.60;;;;;;;18.66;38.93;100969.13;4936601;29;20027;-75
2022/02/23 09:51:47;;;;;;;9.40;2.30;;;;;;;18.70;39.12;100950.63;4936652;29;20501;-75
2022/02/23 09:54:13;;;;;;;15.98;3.50;;;;;;;18.80;38.80;100949.25;4937359;29;20031;-75
2022/02/23 09:56:39;;;;;;;8.27;2.03;;;;;;;18.89;38.80;100949.81;4937574;29;20040;-75
2022/02/23 09:59:05;;;;;;;9.32;2.28;;;;;;;18.89;38.79;100935.19;4934325;29;20091;-77
2022/02/23 10:01:33;;;;;;;5.65;1.50;;;;;;;18.79;38.85;100934.59;4937343;29;20039;-75
2022/02/23 10:04:01;;;;;;;9.23;1.70;;;;;;;18.97;38.74;100923.13;4936570;29;20098;-80
2022/02/23 10:06:32;;;;;;;9.13;1.88;;;;;;;19.09;38.51;100915.44;4935993;29;20552;-82
2022/02/23 10:09:05;;;;;;;8.93;2.78;;;;;;;19.10;38.29;100903.19;4937258;29;20565;-79
2022/02/23 10:11:31;;;;;;;7.22;1.95;;;;;;;19.27;38.15;100904.69;4936416;29;20035;-75
2022/02/23 10:13:58;;;;;;;8.02;3.15;;;;;;;19.31;37.87;100894.47;4936442;29;20035;-81
2022/02/23 10:16:38;;;;;;;15.55;2.88;;;;;;;19.18;38.31;100906.09;4936977;29;20050;-76
2022/02/23 10:19:11;;;;;;;;;;;;;;;18.93;38.16;100881.50;4936777;29;20542;-76
2022/02/23 10:22:03;;;;;;;8.48;1.83;;;;;;;19.22;37.90;100887.56;4937380;29;19915;-81
2022/02/23 10:24:33;;;;;;;7.97;2.38;;;;;;;19.21;38.09;100881.25;4933705;29;20047;-74
2022/02/23 10:27:04;;;;;;;5.50;1.70;;;;;;;19.25;37.82;100873.78;4935572;29;20053;-82
2022/02/23 10:29:38;;;;;;;7.30;2.47;;;;;;;19.39;37.60;100882.34;4936189;29;20035;-79
2022/02/23 10:32:10;;;;;;;6.18;1.92;;;;;;;19.15;37.93;100879.94;4936041;29;20071;-76
2022/02/23 10:34:46;;;;;;;9.27;1.95;;;;;;;19.34;37.36;100857.69;4934686;29;20031;-81
2022/02/23 10:37:15;;;;;;;6.10;2.45;;;;;;;19.67;37.14;100851.56;4934137;29;20038;-76
2022/02/23 10:39:47;;;;;;;8.80;2.10;;;;;;;19.76;36.88;100834.66;4936575;29;20038;-76
2022/02/23 10:42:20;;;;;;;6.78;1.77;;;;;;;19.66;36.89;100835.31;4936650;29;20032;-76
2022/02/23 10:44:48;;;;;;;9.05;2.58;;;;;;;19.35;37.40;100839.94;4936335;29;20034;-79
2022/02/23 10:47:23;;;;;;;13.20;2.33;;;;;;;19.70;36.66;100810.41;4936773;29;20100;-79
2022/02/23 10:50:15;;;;;;;10.73;1.92;;;;;;;19.67;36.85;100839.69;4936736;29;20036;-75
2022/02/23 10:52:53;;;;;;;8.23;3.15;;;;;;;19.74;36.30;100833.44;4935291;29;20035;-82
2022/02/23 10:55:21;;;;;;;7.60;2.08;;;;;;;19.46;36.41;100811.59;4936877;29;20114;-75
2022/02/23 10:57:48;;;;;;;5.85;1.90;;;;;;;20.01;35.87;100840.56;4936211;29;20501;-74
2022/02/23 11:00:19;;;;;;;11.18;2.50;;;;;;;19.68;36.51;100824.66;4936302;29;20482;-77
2022/02/23 11:02:46;;;;;;;6.38;1.88;;;;;;;20.13;35.91;100817.38;4935372;29;20118;-75
2022/02/23 11:05:13;;;;;;;13.85;3.03;;;;;;;20.37;35.58;100808.56;4934313;29;20051;-77
2022/02/23 11:07:42;;;;;;;11.15;2.60;;;;;;;20.19;35.78;100813.91;4933305;29;20394;-75
2022/02/23 11:10:13;;;;;;;12.05;2.63;;;;;;;20.30;35.69;100810.44;4935364;29;20031;-76
2022/02/23 11:12:43;;;;;;;7.80;1.90;;;;;;;20.00;36.08;100786.28;4935286;29;20142;-77
2022/02/23 11:15:09;;;;;;;7.75;2.25;;;;;;;20.42;35.51;100780.47;4935112;29;20056;-76
2022/02/23 11:17:38;;;;;;;5.57;1.77;;;;;;;20.18;35.80;100781.00;4935107;29;20107;-76
2022/02/23 11:20:04;;;;;;;11.43;2.25;;;;;;;20.49;35.47;100774.25;4935028;29;20035;-81
2022/02/23 11:22:31;;;;;;;6.88;1.63;;;;;;;20.32;35.56;100774.78;4935045;29;20090;-80